createdAt,value
2018-07-11T00:00:38.780Z,11.54
2018-07-11T00:01:38.755Z,11.75
2018-07-11T00:02:38.768Z,11.62
2018-07-11T00:03:38.771Z,11.6
2018-07-11T00:04:38.775Z,11.86
2018-07-11T00:05:38.744Z,11.7
2018-07-11T00:06:38.759Z,11.78
2018-07-11T00:07:38.755Z,11.9
2018-07-11T00:08:38.749Z,11.63
2018-07-11T00:09:38.770Z,11.65
2018-07-11T00:10:38.754Z,11.88
2018-07-11T00:11:38.787Z,11.79
2018-07-11T00:12:38.765Z,11.97
2018-07-11T00:13:38.776Z,12.01
2018-07-11T00:14:38.776Z,11.81
2018-07-11T00:15:38.760Z,11.88
2018-07-11T00:16:38.780Z,11.67
2018-07-11T00:17:38.756Z,11.78
2018-07-11T00:18:38.790Z,12.25
2018-07-11T00:19:38.771Z,11.82
2018-07-11T00:20:38.763Z,11.77
2018-07-11T00:21:38.883Z,12.47
2018-07-11T00:22:38.805Z,12.11
2018-07-11T00:23:38.786Z,11.94
2018-07-11T00:24:38.839Z,12.02
2018-07-11T00:25:38.764Z,12.29
2018-07-11T00:26:38.914Z,12.19
2018-07-11T00:27:38.759Z,12.25
2018-07-11T00:28:38.786Z,12.26
2018-07-11T00:29:38.943Z,12.05
2018-07-11T00:30:38.765Z,11.85
2018-07-11T00:31:38.821Z,12.05
2018-07-11T00:32:38.778Z,11.84
2018-07-11T00:33:38.795Z,12.51
2018-07-11T00:34:38.822Z,12.49
2018-07-11T00:35:38.810Z,12.19
2018-07-11T00:36:38.787Z,12.17
2018-07-11T00:37:38.830Z,12.52
2018-07-11T00:38:38.947Z,12.34
2018-07-11T00:39:38.874Z,12.14
2018-07-11T00:40:38.773Z,12.09
2018-07-11T00:41:38.938Z,12.07
2018-07-11T00:42:38.943Z,12.1
2018-07-11T00:43:38.768Z,12.15
2018-07-11T00:44:38.812Z,12.13
2018-07-11T00:45:38.966Z,12.29
2018-07-11T00:46:38.808Z,12.36
2018-07-11T00:47:38.786Z,12.3
2018-07-11T00:48:38.813Z,12.08
2018-07-11T00:49:39.093Z,12.13
2018-07-11T00:50:39.103Z,12.2
2018-07-11T00:51:38.778Z,12.25
2018-07-11T00:52:38.916Z,12.03
2018-07-11T00:53:38.818Z,12.13
2018-07-11T00:54:38.801Z,12.16
2018-07-11T00:55:38.846Z,12.21
2018-07-11T00:56:38.791Z,12.33
2018-07-11T00:57:38.778Z,12.26
2018-07-11T00:58:38.775Z,12.28
2018-07-11T00:59:38.764Z,12.36
2018-07-11T01:00:38.850Z,12.26
2018-07-11T01:01:38.992Z,12.3
2018-07-11T01:02:38.833Z,12.45
2018-07-11T01:03:38.792Z,12.42
2018-07-11T01:04:38.803Z,12.57
2018-07-11T01:05:38.792Z,12.55
2018-07-11T01:06:38.876Z,12.47
2018-07-11T01:07:38.828Z,12.31
2018-07-11T01:08:38.795Z,12.21
2018-07-11T01:09:38.778Z,12.09
2018-07-11T01:10:38.788Z,12.21
2018-07-11T01:11:38.817Z,12.19
2018-07-11T01:12:38.774Z,12.08
2018-07-11T01:13:38.808Z,12.44
2018-07-11T01:14:38.786Z,12.25
2018-07-11T01:15:38.794Z,12.6
2018-07-11T01:16:38.799Z,12.46
2018-07-11T01:17:38.817Z,12.58
2018-07-11T01:18:38.792Z,12.38
2018-07-11T01:19:38.861Z,12.32
2018-07-11T01:20:38.817Z,12.18
2018-07-11T01:21:38.796Z,12.19
2018-07-11T01:22:38.794Z,12.03
2018-07-11T01:23:38.827Z,12.17
2018-07-11T01:24:38.835Z,12.13
2018-07-11T01:25:38.819Z,12.02
2018-07-11T01:26:38.793Z,11.92
2018-07-11T01:27:38.798Z,12.08
2018-07-11T01:28:38.786Z,11.99
2018-07-11T01:29:38.778Z,12.22
2018-07-11T01:30:38.801Z,12.01
2018-07-11T01:31:38.821Z,11.96
2018-07-11T01:32:38.792Z,11.89
2018-07-11T01:33:38.804Z,12.3
2018-07-11T01:34:38.815Z,12.01
2018-07-11T01:35:38.805Z,12.2
2018-07-11T01:36:38.801Z,12.17
2018-07-11T01:37:38.867Z,12.03
2018-07-11T01:38:38.849Z,12.15
2018-07-11T01:39:38.881Z,12.26
2018-07-11T01:40:38.827Z,12.24
2018-07-11T01:41:38.836Z,12.34
2018-07-11T01:42:38.846Z,12.39
2018-07-11T01:43:38.817Z,12.29
2018-07-11T01:44:38.829Z,12.39
2018-07-11T01:45:38.893Z,12.25
2018-07-11T01:46:38.789Z,12.61
2018-07-11T01:47:38.797Z,12.39
2018-07-11T01:48:38.857Z,12.33
2018-07-11T01:49:39.275Z,12.46
2018-07-11T01:50:38.855Z,12.6
2018-07-11T01:51:38.981Z,12.59
2018-07-11T01:52:38.831Z,12.45
2018-07-11T01:53:38.841Z,12.23
2018-07-11T01:54:38.892Z,12.22
2018-07-11T01:55:38.866Z,12.12
2018-07-11T01:56:38.837Z,12.03
2018-07-11T01:57:38.834Z,12.52
2018-07-11T01:58:38.853Z,12.31
2018-07-11T01:59:38.826Z,12.5
2018-07-11T02:00:38.811Z,12.47
2018-07-11T02:01:38.837Z,12.28
2018-07-11T02:02:38.823Z,12.06
2018-07-11T02:03:38.990Z,12.49
2018-07-11T02:04:38.812Z,12.51
2018-07-11T02:05:38.839Z,12.34
2018-07-11T02:06:38.861Z,12.2
2018-07-11T02:07:38.849Z,12.27
2018-07-11T02:08:38.847Z,12.51
2018-07-11T02:09:38.892Z,12.59
2018-07-11T02:10:38.845Z,12.61
2018-07-11T02:11:38.892Z,12.48
2018-07-11T02:12:38.871Z,12.47
2018-07-11T02:13:39.061Z,12.4
2018-07-11T02:14:38.832Z,12.49
2018-07-11T02:15:38.843Z,12.44
2018-07-11T02:16:38.811Z,12.4
2018-07-11T02:17:38.860Z,12.54
2018-07-11T02:18:39.001Z,12.5
2018-07-11T02:19:38.821Z,12.55
2018-07-11T02:20:39.071Z,12.38
2018-07-11T02:21:38.975Z,12.51
2018-07-11T02:22:38.923Z,12.46
2018-07-11T02:23:38.849Z,12.36
2018-07-11T02:24:38.834Z,12.48
2018-07-11T02:25:38.860Z,12.32
2018-07-11T02:26:38.865Z,12.33
2018-07-11T02:27:38.889Z,12.48
2018-07-11T02:28:38.832Z,12.49
2018-07-11T02:29:38.836Z,12.23
2018-07-11T02:30:38.876Z,12.17
2018-07-11T02:31:38.872Z,12.02
2018-07-11T02:32:38.824Z,11.92
2018-07-11T02:33:38.857Z,11.99
2018-07-11T02:34:38.849Z,11.97
2018-07-11T02:35:38.849Z,11.95
2018-07-11T02:36:38.878Z,11.89
2018-07-11T02:37:38.913Z,11.87
2018-07-11T02:38:38.851Z,11.84
2018-07-11T02:39:38.904Z,11.8
2018-07-11T02:40:39.160Z,11.68
2018-07-11T02:41:38.863Z,11.7
2018-07-11T02:42:38.875Z,11.68
2018-07-11T02:43:38.880Z,11.67
2018-07-11T02:44:38.873Z,11.72
2018-07-11T02:45:38.886Z,11.64
2018-07-11T02:46:38.834Z,11.63
2018-07-11T02:47:38.866Z,11.67
2018-07-11T02:48:38.864Z,11.65
2018-07-11T02:49:39.049Z,11.66
2018-07-11T02:50:38.859Z,11.65
2018-07-11T02:51:38.884Z,11.6
2018-07-11T02:52:39.047Z,11.66
2018-07-11T02:53:38.884Z,11.58
2018-07-11T02:54:38.917Z,11.59
2018-07-11T02:55:38.885Z,11.66
2018-07-11T02:56:38.947Z,11.64
2018-07-11T02:57:38.934Z,11.69
2018-07-11T02:58:38.915Z,11.73
2018-07-11T02:59:38.875Z,11.69
2018-07-11T03:00:38.973Z,11.65
2018-07-11T03:01:39.038Z,11.7
2018-07-11T03:02:39.044Z,11.69
2018-07-11T03:03:40.145Z,11.69
2018-07-11T03:04:38.933Z,11.71
2018-07-11T03:05:38.916Z,11.68
2018-07-11T03:06:38.856Z,11.74
2018-07-11T03:07:38.907Z,11.75
2018-07-11T03:08:39.167Z,11.72
2018-07-11T03:09:38.908Z,11.72
2018-07-11T03:10:39.012Z,11.75
2018-07-11T03:11:38.893Z,11.73
2018-07-11T03:12:38.889Z,11.7
2018-07-11T03:13:38.997Z,11.74
2018-07-11T03:14:38.921Z,11.75
2018-07-11T03:15:39.019Z,11.71
2018-07-11T03:16:38.914Z,11.77
2018-07-11T03:17:38.922Z,11.74
2018-07-11T03:18:39.037Z,11.74
2018-07-11T03:19:38.915Z,11.74
2018-07-11T03:20:38.895Z,11.69
2018-07-11T03:21:38.923Z,11.76
2018-07-11T03:22:38.884Z,11.77
2018-07-11T03:23:38.882Z,11.78
2018-07-11T03:24:38.869Z,11.77
2018-07-11T03:25:39.035Z,11.74
2018-07-11T03:26:39.049Z,11.73
2018-07-11T03:27:38.871Z,11.75
2018-07-11T03:28:38.894Z,11.71
2018-07-11T03:29:38.882Z,11.77
2018-07-11T03:30:39.299Z,11.72
2018-07-11T03:31:38.904Z,11.8
2018-07-11T03:32:39.641Z,11.78
2018-07-11T03:33:38.892Z,11.78
2018-07-11T03:34:38.891Z,11.79
2018-07-11T03:35:39.011Z,11.75
2018-07-11T03:36:38.878Z,11.79
2018-07-11T03:37:38.886Z,11.8
2018-07-11T03:38:38.868Z,11.77
2018-07-11T03:39:38.903Z,11.78
2018-07-11T03:40:38.902Z,11.73
2018-07-11T03:41:38.888Z,11.72
2018-07-11T03:42:38.897Z,11.77
2018-07-11T03:43:38.937Z,11.79
2018-07-11T03:44:38.883Z,11.75
2018-07-11T03:45:38.896Z,11.76
2018-07-11T03:46:38.911Z,11.78
2018-07-11T03:47:38.904Z,11.81
2018-07-11T03:48:38.909Z,11.78
2018-07-11T03:49:38.965Z,11.82
2018-07-11T03:50:38.955Z,11.82
2018-07-11T03:51:38.905Z,11.77
2018-07-11T03:52:38.879Z,11.81
2018-07-11T03:53:39.097Z,11.8
2018-07-11T03:54:38.882Z,11.77
2018-07-11T03:55:38.945Z,11.83
2018-07-11T03:56:38.882Z,11.83
2018-07-11T03:57:38.871Z,11.82
2018-07-11T03:58:38.883Z,11.8
2018-07-11T03:59:39.035Z,11.84
2018-07-11T04:00:39.007Z,11.84
2018-07-11T04:01:39.044Z,11.83
2018-07-11T04:02:38.936Z,11.85
2018-07-11T04:03:38.965Z,11.81
2018-07-11T04:04:38.924Z,11.85
2018-07-11T04:05:38.897Z,11.84
2018-07-11T04:06:39.100Z,11.83
2018-07-11T04:07:38.904Z,11.83
2018-07-11T04:08:38.930Z,11.83
2018-07-11T04:09:38.953Z,11.78
2018-07-11T04:10:39.087Z,11.6
2018-07-11T04:11:39.316Z,11.57
2018-07-11T04:12:38.917Z,11.58
2018-07-11T04:13:38.946Z,11.34
2018-07-11T04:14:39.017Z,11.42
2018-07-11T04:15:39.070Z,11.42
2018-07-11T04:16:38.916Z,11.35
2018-07-11T04:17:39.313Z,11.39
2018-07-11T04:18:38.912Z,11.35
2018-07-11T04:19:39.024Z,11.34
2018-07-11T04:20:38.997Z,11.38
2018-07-11T04:21:38.956Z,11.33
2018-07-11T04:22:38.964Z,11.4
2018-07-11T04:23:39.029Z,11.32
2018-07-11T04:24:38.987Z,11.36
2018-07-11T04:25:38.972Z,11.33
2018-07-11T04:26:39.070Z,11.31
2018-07-11T04:27:39.307Z,11.28
2018-07-11T04:28:39.273Z,11.3
2018-07-11T04:29:39.101Z,11.29
2018-07-11T04:30:39.072Z,11.31
2018-07-11T04:31:38.970Z,11.35
2018-07-11T04:32:39.081Z,11.3
2018-07-11T04:33:39.066Z,11.24
2018-07-11T04:34:39.389Z,11.21
2018-07-11T04:35:39.062Z,11.18
2018-07-11T04:36:39.044Z,11.13
2018-07-11T04:37:39.146Z,11.07
2018-07-11T04:38:39.009Z,11.04
2018-07-11T04:39:39.800Z,11.09
2018-07-11T04:40:39.062Z,11.08
2018-07-11T04:41:38.891Z,10.92
2018-07-11T04:42:39.636Z,10.95
2018-07-11T04:43:39.014Z,10.91
2018-07-11T04:44:38.979Z,10.9
2018-07-11T04:45:39.058Z,10.86
2018-07-11T04:46:39.015Z,10.93
2018-07-11T04:47:38.980Z,10.93
2018-07-11T04:48:38.976Z,10.91
2018-07-11T04:49:39.015Z,10.85
2018-07-11T04:50:38.959Z,10.87
2018-07-11T04:51:38.932Z,10.91
2018-07-11T04:52:39.174Z,10.88
2018-07-11T04:53:38.927Z,10.88
2018-07-11T04:54:38.919Z,10.87
2018-07-11T04:55:38.931Z,10.99
2018-07-11T04:56:38.973Z,10.98
2018-07-11T04:57:38.965Z,11.14
2018-07-11T04:58:39.132Z,11.06
2018-07-11T04:59:38.930Z,11
2018-07-11T05:00:38.924Z,10.92
2018-07-11T05:01:40.273Z,10.94
2018-07-11T05:02:39.114Z,10.9
2018-07-11T05:03:38.984Z,10.77
2018-07-11T05:04:39.079Z,10.7
2018-07-11T05:05:38.932Z,10.76
2018-07-11T05:06:39.011Z,10.86
2018-07-11T05:07:38.966Z,10.83
2018-07-11T05:08:38.980Z,10.81
2018-07-11T05:09:38.960Z,10.72
2018-07-11T05:10:38.933Z,10.77
2018-07-11T05:11:38.931Z,10.73
2018-07-11T05:12:38.978Z,10.71
2018-07-11T05:13:38.975Z,10.8
2018-07-11T05:14:39.018Z,10.84
2018-07-11T05:15:39.040Z,10.83
2018-07-11T05:16:39.217Z,10.84
2018-07-11T05:17:39.058Z,10.72
2018-07-11T05:18:39.121Z,10.74
2018-07-11T05:19:39.000Z,10.77
2018-07-11T05:20:39.015Z,10.77
2018-07-11T05:21:38.958Z,10.82
2018-07-11T05:22:39.064Z,10.81
2018-07-11T05:23:39.097Z,10.88
2018-07-11T05:24:38.962Z,10.83
2018-07-11T05:25:39.044Z,10.73
2018-07-11T05:26:38.947Z,10.8
2018-07-11T05:27:39.486Z,10.77
2018-07-11T05:28:39.103Z,10.7
2018-07-11T05:29:38.967Z,10.54
2018-07-11T05:30:38.976Z,10.53
2018-07-11T05:31:39.025Z,10.53
2018-07-11T05:32:39.011Z,10.63
2018-07-11T05:33:39.095Z,10.54
2018-07-11T05:34:38.999Z,10.64
2018-07-11T05:35:39.081Z,10.46
2018-07-11T05:36:39.076Z,10.34
2018-07-11T05:37:38.981Z,10.4
2018-07-11T05:38:39.059Z,10.41
2018-07-11T05:39:39.025Z,10.45
2018-07-11T05:40:38.968Z,10.48
2018-07-11T05:41:39.109Z,10.51
2018-07-11T05:42:39.038Z,10.44
2018-07-11T05:43:39.249Z,10.47
2018-07-11T05:44:38.942Z,10.51
2018-07-11T05:45:38.966Z,10.49
2018-07-11T05:46:39.140Z,10.57
2018-07-11T05:47:38.946Z,10.57
2018-07-11T05:48:39.028Z,10.56
2018-07-11T05:49:38.954Z,10.51
2018-07-11T05:50:39.028Z,10.47
2018-07-11T05:51:39.017Z,10.51
2018-07-11T05:52:39.034Z,10.39
2018-07-11T05:53:39.057Z,10.45
2018-07-11T05:54:39.038Z,10.34
2018-07-11T05:55:39.206Z,10.23
2018-07-11T05:56:38.945Z,10.17
2018-07-11T05:57:38.972Z,10.19
2018-07-11T05:58:39.062Z,10.13
2018-07-11T05:59:39.271Z,10.12
2018-07-11T06:00:39.074Z,10.17
2018-07-11T06:01:39.158Z,10.24
2018-07-11T06:02:39.313Z,10.06
2018-07-11T06:03:39.325Z,10.03
2018-07-11T06:04:41.997Z,9.97
2018-07-11T06:05:38.986Z,9.99
2018-07-11T06:06:39.104Z,10.02
2018-07-11T06:07:39.183Z,9.85
2018-07-11T06:08:38.997Z,9.84
2018-07-11T06:09:39.044Z,9.94
2018-07-11T06:10:38.954Z,9.99
2018-07-11T06:11:39.704Z,10
2018-07-11T06:12:38.977Z,10.04
2018-07-11T06:13:39.477Z,9.91
2018-07-11T06:14:39.155Z,10.08
2018-07-11T06:15:38.989Z,10.09
2018-07-11T06:16:39.640Z,10.17
2018-07-11T06:17:39.017Z,10.22
2018-07-11T06:18:39.014Z,10.12
2018-07-11T06:19:39.030Z,10.12
2018-07-11T06:20:39.007Z,10.19
2018-07-11T06:21:39.025Z,10.07
2018-07-11T06:22:39.034Z,10.15
2018-07-11T06:23:39.044Z,10.23
2018-07-11T06:24:38.984Z,10.13
2018-07-11T06:25:39.017Z,9.99
2018-07-11T06:26:39.058Z,9.9
2018-07-11T06:27:38.971Z,9.98
2018-07-11T06:28:39.505Z,10.08
2018-07-11T06:29:39.007Z,10.12
2018-07-11T06:30:38.999Z,10.15
2018-07-11T06:31:39.061Z,10.18
2018-07-11T06:32:39.012Z,10.22
2018-07-11T06:33:41.693Z,10.23
2018-07-11T06:34:39.482Z,10.23
2018-07-11T06:35:39.013Z,10.32
2018-07-11T06:36:39.062Z,10.33
2018-07-11T06:37:39.072Z,10.28
2018-07-11T06:38:39.085Z,10.37
2018-07-11T06:39:39.812Z,10.33
2018-07-11T06:40:39.036Z,10.41
2018-07-11T06:41:39.112Z,10.39
2018-07-11T06:42:43.570Z,10.37
2018-07-11T06:43:39.047Z,10.38
2018-07-11T06:44:39.046Z,10.33
2018-07-11T06:45:39.065Z,10.37
2018-07-11T06:46:39.202Z,10.37
2018-07-11T06:47:39.149Z,10.33
2018-07-11T06:48:38.978Z,10.4
2018-07-11T06:49:39.127Z,10.42
2018-07-11T06:50:39.071Z,10.43
2018-07-11T06:51:39.208Z,10.48
2018-07-11T06:52:39.037Z,10.5
2018-07-11T06:53:39.053Z,10.38
2018-07-11T06:54:39.054Z,10.31
2018-07-11T06:55:39.059Z,10.33
2018-07-11T06:56:39.029Z,10.39
2018-07-11T06:57:39.424Z,10.38
2018-07-11T06:58:39.039Z,10.39
2018-07-11T06:59:39.023Z,10.41
2018-07-11T07:00:39.028Z,10.43
2018-07-11T07:01:39.105Z,10.4
2018-07-11T07:02:39.036Z,10.38
2018-07-11T07:03:39.748Z,10.43
2018-07-11T07:04:39.031Z,10.52
2018-07-11T07:05:39.018Z,10.51
2018-07-11T07:06:39.100Z,10.51
2018-07-11T07:07:39.043Z,10.44
2018-07-11T07:08:39.088Z,10.47
2018-07-11T07:09:39.023Z,10.57
2018-07-11T07:10:39.101Z,10.55
2018-07-11T07:11:39.477Z,10.51
2018-07-11T07:12:39.175Z,10.44
2018-07-11T07:13:39.183Z,10.53
2018-07-11T07:14:39.012Z,10.56
2018-07-11T07:15:39.008Z,10.62
2018-07-11T07:16:39.484Z,10.57
2018-07-11T07:17:39.033Z,10.59
2018-07-11T07:18:39.001Z,10.47
2018-07-11T07:19:39.048Z,10.48
2018-07-11T07:20:39.127Z,10.59
2018-07-11T07:21:39.018Z,10.6
2018-07-11T07:22:39.202Z,10.51
2018-07-11T07:23:39.072Z,10.5
2018-07-11T07:24:39.053Z,10.58
2018-07-11T07:25:39.117Z,10.68
2018-07-11T07:26:38.996Z,10.7
2018-07-11T07:27:39.177Z,10.72
2018-07-11T07:28:39.076Z,10.63
2018-07-11T07:29:39.042Z,10.79
2018-07-11T07:30:39.012Z,10.61
2018-07-11T07:31:39.038Z,10.51
2018-07-11T07:32:39.020Z,10.48
2018-07-11T07:33:38.999Z,10.51
2018-07-11T07:34:39.297Z,10.53
2018-07-11T07:35:39.043Z,10.44
2018-07-11T07:36:39.155Z,10.59
2018-07-11T07:37:39.012Z,10.62
2018-07-11T07:38:39.010Z,10.65
2018-07-11T07:39:39.065Z,10.64
2018-07-11T07:40:39.030Z,10.45
2018-07-11T07:41:39.041Z,10.49
2018-07-11T07:42:39.007Z,10.43
2018-07-11T07:43:39.035Z,10.5
2018-07-11T07:44:39.020Z,10.53
2018-07-11T07:45:39.029Z,10.59
2018-07-11T07:46:39.029Z,10.55
2018-07-11T07:47:39.033Z,10.61
2018-07-11T07:48:38.991Z,10.55
2018-07-11T07:49:39.044Z,10.49
2018-07-11T07:50:39.031Z,10.38
2018-07-11T07:51:39.069Z,10.26
2018-07-11T07:52:39.020Z,10.37
2018-07-11T07:53:39.038Z,10.37
2018-07-11T07:54:39.043Z,10.48
2018-07-11T07:55:39.049Z,10.37
2018-07-11T07:56:39.097Z,10.46
2018-07-11T07:57:39.152Z,10.35
2018-07-11T07:58:39.131Z,10.41
2018-07-11T07:59:39.246Z,10.5
2018-07-11T08:00:39.123Z,10.51
2018-07-11T08:01:39.073Z,10.52
2018-07-11T08:02:39.060Z,10.52
2018-07-11T08:03:39.020Z,10.57
2018-07-11T08:04:39.270Z,10.52
2018-07-11T08:05:39.082Z,10.62
2018-07-11T08:06:39.150Z,10.62
2018-07-11T08:07:39.017Z,10.59
2018-07-11T08:08:39.019Z,10.43
2018-07-11T08:09:39.055Z,10.54
2018-07-11T08:10:39.070Z,10.58
2018-07-11T08:11:39.092Z,10.52
2018-07-11T08:12:39.496Z,10.56
2018-07-11T08:13:39.050Z,10.49
2018-07-11T08:14:39.130Z,10.47
2018-07-11T08:15:39.031Z,10.52
2018-07-11T08:16:39.066Z,10.44
2018-07-11T08:17:39.076Z,10.38
2018-07-11T08:18:39.084Z,10.35
2018-07-11T08:19:39.031Z,10.42
2018-07-11T08:20:39.064Z,10.46
2018-07-11T08:21:39.023Z,10.5
2018-07-11T08:22:39.044Z,10.28
2018-07-11T08:23:39.093Z,10.36
2018-07-11T08:24:39.061Z,10.17
2018-07-11T08:25:39.029Z,10.2
2018-07-11T08:26:39.068Z,10.22
2018-07-11T08:27:39.040Z,10.33
2018-07-11T08:28:39.071Z,10.39
2018-07-11T08:29:39.361Z,10.39
2018-07-11T08:30:39.083Z,10.48
2018-07-11T08:31:39.062Z,10.49
2018-07-11T08:32:39.076Z,10.53
2018-07-11T08:33:39.052Z,10.54
2018-07-11T08:34:39.410Z,10.53
2018-07-11T08:35:39.085Z,10.59
2018-07-11T08:36:39.041Z,10.62
2018-07-11T08:37:39.102Z,10.49
2018-07-11T08:38:39.711Z,10.43
2018-07-11T08:39:39.055Z,10.51
2018-07-11T08:40:39.054Z,10.47
2018-07-11T08:41:39.230Z,10.42
2018-07-11T08:42:39.216Z,10.53
2018-07-11T08:43:39.091Z,10.46
2018-07-11T08:44:39.048Z,10.49
2018-07-11T08:45:39.050Z,10.49
2018-07-11T08:46:39.305Z,10.43
2018-07-11T08:47:39.418Z,10.43
2018-07-11T08:48:39.073Z,10.49
2018-07-11T08:49:39.050Z,10.42
2018-07-11T08:50:39.130Z,10.43
2018-07-11T08:51:39.088Z,10.37
2018-07-11T08:52:39.083Z,10.46
2018-07-11T08:53:39.119Z,10.41
2018-07-11T08:54:39.043Z,10.37
2018-07-11T08:55:39.144Z,10.33
2018-07-11T08:56:39.061Z,10.27
2018-07-11T08:57:39.077Z,10.23
2018-07-11T08:58:39.151Z,10.34
2018-07-11T08:59:39.089Z,10.3
2018-07-11T09:00:39.057Z,10.27
2018-07-11T09:01:39.070Z,10.3
2018-07-11T09:02:39.367Z,10.27
2018-07-11T09:03:39.106Z,10.23
2018-07-11T09:04:39.412Z,10.1
2018-07-11T09:05:39.110Z,10.15
2018-07-11T09:06:39.113Z,10.11
2018-07-11T09:07:39.193Z,10.23
2018-07-11T09:08:39.398Z,10.26
2018-07-11T09:09:39.112Z,10.32
2018-07-11T09:10:40.017Z,10.33
2018-07-11T09:11:39.142Z,10.09
2018-07-11T09:12:39.078Z,10.09
2018-07-11T09:13:39.128Z,10.08
2018-07-11T09:14:39.183Z,10.19
2018-07-11T09:15:39.073Z,10.2
2018-07-11T09:16:39.164Z,10.2
2018-07-11T09:17:39.100Z,10.21
2018-07-11T09:18:39.136Z,10.31
2018-07-11T09:19:39.098Z,10.31
2018-07-11T09:20:39.103Z,10.31
2018-07-11T09:21:39.064Z,10.28
2018-07-11T09:22:39.271Z,10.22
2018-07-11T09:23:39.242Z,10.27
2018-07-11T09:24:39.161Z,10.23
2018-07-11T09:25:39.076Z,10.26
2018-07-11T09:26:39.109Z,10.25
2018-07-11T09:27:39.068Z,10.26
2018-07-11T09:28:39.072Z,10.19
2018-07-11T09:29:39.651Z,10.24
2018-07-11T09:30:39.628Z,10.28
2018-07-11T09:31:39.237Z,10.29
2018-07-11T09:32:39.101Z,10.31
2018-07-11T09:33:39.179Z,10.29
2018-07-11T09:34:39.140Z,10.26
2018-07-11T09:35:39.082Z,10.3
2018-07-11T09:36:39.181Z,10.31
2018-07-11T09:37:39.519Z,10.33
2018-07-11T09:38:39.103Z,10.37
2018-07-11T09:39:39.085Z,10.4
2018-07-11T09:40:39.263Z,10.38
2018-07-11T09:41:39.083Z,10.36
2018-07-11T09:42:39.098Z,10.4
2018-07-11T09:43:39.107Z,10.39
2018-07-11T09:44:39.104Z,10.4
2018-07-11T09:45:39.880Z,10.58
2018-07-11T09:46:39.230Z,10.53
2018-07-11T09:47:39.218Z,10.72
2018-07-11T09:48:39.319Z,10.67
2018-07-11T09:49:39.158Z,10.51
2018-07-11T09:50:39.124Z,10.58
2018-07-11T09:51:39.305Z,10.45
2018-07-11T09:52:39.078Z,10.42
2018-07-11T09:53:39.144Z,10.57
2018-07-11T09:54:39.156Z,10.56
2018-07-11T09:55:39.094Z,10.54
2018-07-11T09:56:39.099Z,10.53
2018-07-11T09:57:39.441Z,10.5
2018-07-11T09:58:39.078Z,10.5
2018-07-11T09:59:39.083Z,10.38
2018-07-11T10:00:39.166Z,10.43
2018-07-11T10:01:39.138Z,10.38
2018-07-11T10:02:39.091Z,10.33
2018-07-11T10:03:39.267Z,10.35
2018-07-11T10:04:39.124Z,10.38
2018-07-11T10:05:39.097Z,10.46
2018-07-11T10:06:40.222Z,10.44
2018-07-11T10:07:39.140Z,10.41
2018-07-11T10:08:39.121Z,10.44
2018-07-11T10:09:39.090Z,10.36
2018-07-11T10:10:39.115Z,10.39
2018-07-11T10:11:39.166Z,10.4
2018-07-11T10:12:39.599Z,10.43
2018-07-11T10:13:39.089Z,10.46
2018-07-11T10:14:39.129Z,10.4
2018-07-11T10:15:39.133Z,10.37
2018-07-11T10:16:39.089Z,10.34
2018-07-11T10:17:39.309Z,10.38
2018-07-11T10:18:39.123Z,10.44
2018-07-11T10:19:39.110Z,10.35
2018-07-11T10:20:39.125Z,10.31
2018-07-11T10:21:39.490Z,10.39
2018-07-11T10:22:39.287Z,10.35
2018-07-11T10:23:39.178Z,10.4
2018-07-11T10:24:39.113Z,10.37
2018-07-11T10:25:39.226Z,10.34
2018-07-11T10:26:39.216Z,10.39
2018-07-11T10:27:39.109Z,10.4
2018-07-11T10:28:39.254Z,10.52
2018-07-11T10:29:39.170Z,10.42
2018-07-11T10:30:39.111Z,10.42
2018-07-11T10:31:39.132Z,10.39
2018-07-11T10:32:39.153Z,10.35
2018-07-11T10:33:39.475Z,10.35
2018-07-11T10:34:39.118Z,10.36
2018-07-11T10:35:39.218Z,10.39
2018-07-11T10:36:39.157Z,10.43
2018-07-11T10:37:39.174Z,10.38
2018-07-11T10:38:39.211Z,10.43
2018-07-11T10:39:39.302Z,10.41
2018-07-11T10:40:39.191Z,10.48
2018-07-11T10:41:39.225Z,10.49
2018-07-11T10:42:39.152Z,10.43
2018-07-11T10:43:39.316Z,10.33
2018-07-11T10:44:39.138Z,10.42
2018-07-11T10:45:39.204Z,10.39
2018-07-11T10:46:39.192Z,10.44
2018-07-11T10:47:39.180Z,10.45
2018-07-11T10:48:39.161Z,10.52
2018-07-11T10:49:39.347Z,10.58
2018-07-11T10:50:39.598Z,10.41
2018-07-11T10:51:39.197Z,10.42
2018-07-11T10:52:39.244Z,10.54
2018-07-11T10:53:39.287Z,10.54
2018-07-11T10:54:39.130Z,10.45
2018-07-11T10:55:39.152Z,10.6
2018-07-11T10:56:39.144Z,10.51
2018-07-11T10:57:40.174Z,10.73
2018-07-11T10:58:39.203Z,10.54
2018-07-11T10:59:39.177Z,10.52
2018-07-11T11:00:39.507Z,10.35
2018-07-11T11:01:39.158Z,10.33
2018-07-11T11:02:39.493Z,10.47
2018-07-11T11:03:39.153Z,10.52
2018-07-11T11:04:39.171Z,10.52
2018-07-11T11:05:39.313Z,10.35
2018-07-11T11:06:39.224Z,10.49
2018-07-11T11:07:39.169Z,10.55
2018-07-11T11:08:39.186Z,10.57
2018-07-11T11:09:39.242Z,10.59
2018-07-11T11:10:39.149Z,10.53
2018-07-11T11:11:39.123Z,10.44
2018-07-11T11:12:39.185Z,10.49
2018-07-11T11:13:39.157Z,10.52
2018-07-11T11:14:39.512Z,10.51
2018-07-11T11:15:39.202Z,10.61
2018-07-11T11:16:39.173Z,10.71
2018-07-11T11:17:39.170Z,10.69
2018-07-11T11:18:39.143Z,10.66
2018-07-11T11:19:39.163Z,10.7
2018-07-11T11:20:39.182Z,10.81
2018-07-11T11:21:39.184Z,10.76
2018-07-11T11:22:39.172Z,10.79
2018-07-11T11:23:39.156Z,10.73
2018-07-11T11:24:39.172Z,10.61
2018-07-11T11:25:39.370Z,10.77
2018-07-11T11:26:39.174Z,10.81
2018-07-11T11:27:39.204Z,10.82
2018-07-11T11:28:39.229Z,10.79
2018-07-11T11:29:39.208Z,10.66
2018-07-11T11:30:39.164Z,10.47
2018-07-11T11:31:39.253Z,10.41
2018-07-11T11:32:39.373Z,10.38
2018-07-11T11:33:39.189Z,10.6
2018-07-11T11:34:39.152Z,10.67
2018-07-11T11:35:39.545Z,10.58
2018-07-11T11:36:39.345Z,10.66
2018-07-11T11:37:39.198Z,10.49
2018-07-11T11:38:39.156Z,10.51
2018-07-11T11:39:39.204Z,10.38
2018-07-11T11:40:39.165Z,10.34
2018-07-11T11:41:40.316Z,10.38
2018-07-11T11:42:40.076Z,10.24
2018-07-11T11:43:39.201Z,10.4
2018-07-11T11:44:39.188Z,10.49
2018-07-11T11:45:39.197Z,10.3
2018-07-11T11:46:39.222Z,10.34
2018-07-11T11:47:39.218Z,10.37
2018-07-11T11:48:39.188Z,10.52
2018-07-11T11:49:39.213Z,10.5
2018-07-11T11:50:39.192Z,10.61
2018-07-11T11:51:39.284Z,10.59
2018-07-11T11:52:39.284Z,10.61
2018-07-11T11:53:39.197Z,10.7
2018-07-11T11:54:39.203Z,10.73
2018-07-11T11:55:39.187Z,10.6
2018-07-11T11:56:39.168Z,10.7
2018-07-11T11:57:39.197Z,10.62
2018-07-11T11:58:39.649Z,10.6
2018-07-11T11:59:39.185Z,10.62
2018-07-11T12:00:39.276Z,10.37
2018-07-11T12:01:39.331Z,10.41
2018-07-11T12:02:39.266Z,10.45
2018-07-11T12:03:39.185Z,10.56
2018-07-11T12:04:39.196Z,10.54
2018-07-11T12:05:39.193Z,10.48
2018-07-11T12:06:39.351Z,10.49
2018-07-11T12:07:39.267Z,10.57
2018-07-11T12:08:39.171Z,10.65
2018-07-11T12:09:39.273Z,10.53
2018-07-11T12:10:39.173Z,10.72
2018-07-11T12:11:39.878Z,10.77
2018-07-11T12:12:39.207Z,10.48
2018-07-11T12:13:39.297Z,10.61
2018-07-11T12:14:39.374Z,10.57
2018-07-11T12:15:39.184Z,10.36
2018-07-11T12:16:39.379Z,10.51
2018-07-11T12:17:39.207Z,10.48
2018-07-11T12:18:39.274Z,10.31
2018-07-11T12:19:39.205Z,10.33
2018-07-11T12:20:39.199Z,10.34
2018-07-11T12:21:39.188Z,10.38
2018-07-11T12:22:39.188Z,10.37
2018-07-11T12:23:40.855Z,10.46
2018-07-11T12:24:39.321Z,10.54
2018-07-11T12:25:39.180Z,10.24
2018-07-11T12:26:39.195Z,10.18
2018-07-11T12:27:39.209Z,10.12
2018-07-11T12:28:39.186Z,9.97
2018-07-11T12:29:39.204Z,10.19
2018-07-11T12:30:39.265Z,10.18
2018-07-11T12:31:39.220Z,10.23
2018-07-11T12:32:39.191Z,10.21
2018-07-11T12:33:39.908Z,10.19
2018-07-11T12:34:39.252Z,10.35
2018-07-11T12:35:39.242Z,10.33
2018-07-11T12:36:39.223Z,10.26
2018-07-11T12:37:39.271Z,10.24
2018-07-11T12:38:39.246Z,9.77
2018-07-11T12:39:39.281Z,9.92
2018-07-11T12:40:39.292Z,9.66
2018-07-11T12:41:39.302Z,9.69
2018-07-11T12:42:39.274Z,9.68
2018-07-11T12:43:39.734Z,9.58
2018-07-11T12:44:39.706Z,9.69
2018-07-11T12:45:39.424Z,9.88
2018-07-11T12:46:39.436Z,9.98
2018-07-11T12:47:39.262Z,10.16
2018-07-11T12:48:39.289Z,10.3
2018-07-11T12:49:39.281Z,10.19
2018-07-11T12:50:39.380Z,10.2
2018-07-11T12:51:39.277Z,10
2018-07-11T12:52:39.375Z,10.18
2018-07-11T12:53:39.266Z,10.21
2018-07-11T12:54:39.282Z,10.17
2018-07-11T12:55:39.284Z,10.09
2018-07-11T12:56:39.598Z,10.19